createdAt,value
2023-03-18T00:00:34.328Z,8.30
2023-03-18T00:03:20.293Z,8.20
2023-03-18T00:06:18.779Z,8.10
2023-03-18T00:09:05.500Z,8.10
2023-03-18T00:11:52.227Z,8.00
2023-03-18T00:14:38.724Z,8.00
2023-03-18T00:17:25.731Z,8.00
2023-03-18T00:20:13.174Z,8.00
2023-03-18T00:22:59.226Z,8.00
2023-03-18T00:25:48.491Z,8.00
2023-03-18T00:28:34.738Z,8.00
2023-03-18T00:31:22.547Z,8.10
2023-03-18T00:34:08.720Z,8.10
2023-03-18T00:36:57.036Z,8.10
2023-03-18T00:39:44.402Z,8.10
2023-03-18T00:42:37.156Z,8.00
2023-03-18T00:45:24.561Z,7.90
2023-03-18T00:48:12.041Z,8.00
2023-03-18T00:50:58.030Z,8.00
2023-03-18T00:53:46.838Z,8.20
2023-03-18T00:56:33.249Z,8.10
2023-03-18T00:59:19.898Z,8.00
2023-03-18T01:02:05.593Z,8.00
2023-03-18T01:04:51.782Z,8.10
2023-03-18T01:07:38.358Z,8.00
2023-03-18T01:10:25.076Z,8.00
2023-03-18T01:13:10.786Z,8.10
2023-03-18T01:15:56.933Z,7.90
2023-03-18T01:18:43.333Z,7.80
2023-03-18T01:21:29.340Z,7.90
2023-03-18T01:24:18.876Z,7.80
2023-03-18T01:27:06.483Z,7.70
2023-03-18T01:29:54.764Z,7.60
2023-03-18T01:32:43.911Z,7.60
2023-03-18T01:35:33.015Z,7.60
2023-03-18T01:38:18.867Z,7.50
2023-03-18T01:41:05.636Z,7.60
2023-03-18T01:43:54.762Z,7.70
2023-03-18T01:46:45.006Z,7.70
2023-03-18T01:49:35.171Z,7.60
2023-03-18T01:52:27.211Z,7.60
2023-03-18T01:55:19.520Z,7.40
2023-03-18T01:58:15.771Z,7.50
2023-03-18T02:01:07.237Z,7.60
2023-03-18T02:03:54.191Z,7.60
2023-03-18T02:06:40.681Z,7.70
2023-03-18T02:09:26.378Z,7.90
2023-03-18T02:12:15.089Z,7.70
2023-03-18T02:15:13.292Z,7.70
2023-03-18T02:18:08.276Z,7.70
2023-03-18T02:21:11.901Z,7.70
2023-03-18T02:24:16.725Z,7.70
2023-03-18T02:27:21.019Z,7.60
2023-03-18T02:30:24.002Z,7.40
2023-03-18T02:33:16.447Z,7.40
2023-03-18T02:36:17.844Z,7.50
2023-03-18T02:39:05.009Z,7.50
2023-03-18T02:41:51.333Z,7.40
2023-03-18T02:44:43.804Z,7.40
2023-03-18T02:48:14.358Z,7.40
2023-03-18T02:51:00.787Z,7.40
2023-03-18T02:53:48.260Z,7.40
2023-03-18T02:56:35.088Z,7.50
2023-03-18T02:59:22.282Z,7.40
2023-03-18T03:02:08.300Z,7.50
2023-03-18T03:04:54.607Z,7.40
2023-03-18T03:07:40.231Z,7.50
2023-03-18T03:10:28.074Z,7.50
2023-03-18T03:13:15.814Z,7.50
2023-03-18T03:16:01.904Z,7.50
2023-03-18T03:18:48.044Z,7.40
2023-03-18T03:21:36.129Z,7.50
2023-03-18T03:24:22.370Z,7.80
2023-03-18T03:27:08.207Z,7.90
2023-03-18T03:29:55.637Z,7.90
2023-03-18T03:32:41.267Z,7.90
2023-03-18T03:35:29.182Z,8.00
2023-03-18T03:38:14.995Z,8.00
2023-03-18T03:41:00.917Z,7.50
2023-03-18T03:43:46.758Z,7.40
2023-03-18T03:46:32.892Z,7.30
2023-03-18T03:49:18.875Z,7.30
2023-03-18T03:52:06.726Z,7.40
2023-03-18T03:54:56.599Z,7.50
2023-03-18T03:57:42.652Z,7.60
2023-03-18T04:00:29.638Z,7.70
2023-03-18T04:03:15.588Z,7.30
2023-03-18T04:06:02.038Z,6.50
2023-03-18T04:08:50.666Z,6.60
2023-03-18T04:11:37.050Z,6.20
2023-03-18T04:14:23.338Z,6.40
2023-03-18T04:17:09.724Z,6.80
2023-03-18T04:19:56.047Z,6.40
2023-03-18T04:22:47.963Z,6.40
2023-03-18T04:25:37.122Z,7.00
2023-03-18T04:28:23.292Z,7.50
2023-03-18T04:31:09.386Z,7.70
2023-03-18T04:33:55.625Z,8.00
2023-03-18T04:36:41.610Z,7.80
2023-03-18T04:39:27.560Z,7.50
2023-03-18T04:42:13.746Z,7.70
2023-03-18T04:44:59.767Z,7.50
2023-03-18T04:47:46.520Z,7.50
2023-03-18T04:50:33.296Z,7.30
2023-03-18T04:53:20.133Z,7.40
2023-03-18T04:56:07.326Z,7.50
2023-03-18T04:59:01.357Z,7.40
2023-03-18T05:01:50.612Z,7.30
2023-03-18T05:04:37.736Z,7.40
2023-03-18T05:07:23.779Z,7.20
2023-03-18T05:10:17.420Z,7.50
2023-03-18T05:13:03.825Z,7.40
2023-03-18T05:15:54.928Z,7.50
2023-03-18T05:18:41.319Z,7.60
2023-03-18T05:21:28.319Z,7.50
2023-03-18T05:24:16.203Z,7.30
2023-03-18T05:27:02.715Z,7.30
2023-03-18T05:29:55.474Z,7.30
2023-03-18T05:32:48.953Z,7.40
2023-03-18T05:35:36.984Z,7.30
2023-03-18T05:38:23.699Z,7.30
2023-03-18T05:41:10.288Z,7.20
2023-03-18T05:44:00.149Z,7.10
2023-03-18T05:46:47.937Z,7.10
2023-03-18T05:49:44.369Z,7.30
2023-03-18T05:52:36.466Z,7.30
2023-03-18T05:55:26.320Z,7.40
2023-03-18T05:58:12.943Z,7.40
2023-03-18T06:01:01.014Z,7.40
2023-03-18T06:03:47.884Z,7.50
2023-03-18T06:06:34.098Z,7.40
2023-03-18T06:09:20.097Z,7.30
2023-03-18T06:12:06.160Z,7.30
2023-03-18T06:14:52.581Z,7.50
2023-03-18T06:17:40.123Z,7.70
2023-03-18T06:20:27.086Z,7.90
2023-03-18T06:23:13.456Z,8.00
2023-03-18T06:25:59.467Z,8.20
2023-03-18T06:28:51.370Z,8.40
2023-03-18T06:31:37.747Z,8.50
2023-03-18T06:34:25.873Z,8.80
2023-03-18T06:37:13.814Z,9.00
2023-03-18T06:40:00.531Z,9.10
2023-03-18T06:42:46.866Z,9.20
2023-03-18T06:45:43.655Z,9.20
2023-03-18T06:48:29.788Z,9.20
2023-03-18T06:51:18.112Z,9.40
2023-03-18T06:54:05.731Z,9.60
2023-03-18T06:56:51.906Z,9.70
2023-03-18T06:59:38.697Z,9.90
2023-03-18T07:02:25.130Z,10.10
2023-03-18T07:05:14.771Z,10.40
2023-03-18T07:08:01.693Z,10.40
2023-03-18T07:10:48.354Z,10.30
2023-03-18T07:13:34.963Z,10.30
2023-03-18T07:16:24.178Z,10.40
2023-03-18T07:19:10.057Z,10.50
2023-03-18T07:21:57.200Z,10.70
2023-03-18T07:24:46.067Z,10.60
2023-03-18T07:27:33.865Z,10.90
2023-03-18T07:30:21.941Z,11.00
2023-03-18T07:33:09.009Z,11.10
2023-03-18T07:35:56.926Z,11.40
2023-03-18T07:38:43.078Z,11.70
2023-03-18T07:41:29.779Z,12.30
2023-03-18T07:44:16.165Z,11.90
2023-03-18T07:47:02.680Z,12.00
2023-03-18T07:49:49.237Z,12.10
2023-03-18T07:52:35.977Z,12.20
2023-03-18T07:55:22.158Z,12.50
2023-03-18T07:58:11.183Z,13.50
2023-03-18T08:00:57.827Z,15.00
2023-03-18T08:03:43.974Z,16.30
2023-03-18T08:06:30.034Z,16.60
2023-03-18T08:09:16.888Z,14.40
2023-03-18T08:12:03.153Z,15.70
2023-03-18T08:14:49.873Z,15.50
2023-03-18T08:17:37.032Z,14.40
2023-03-18T08:20:23.322Z,13.90
2023-03-18T08:23:09.385Z,14.10
2023-03-18T08:25:55.284Z,13.70
2023-03-18T08:28:42.112Z,13.60
2023-03-18T08:31:28.471Z,15.00
2023-03-18T08:34:14.832Z,15.40
2023-03-18T08:37:01.238Z,15.50
2023-03-18T08:39:48.038Z,15.10
2023-03-18T08:42:34.362Z,16.00
2023-03-18T08:45:20.816Z,14.80
2023-03-18T08:48:07.510Z,14.80
2023-03-18T08:50:53.892Z,16.40
2023-03-18T08:53:41.594Z,18.30
2023-03-18T08:56:28.403Z,19.30
2023-03-18T08:59:14.323Z,17.40
2023-03-18T09:02:00.215Z,16.40
2023-03-18T09:04:48.184Z,16.10
2023-03-18T09:07:33.999Z,17.10
2023-03-18T09:10:21.456Z,17.80
2023-03-18T09:13:08.360Z,16.30
2023-03-18T09:15:54.772Z,16.30
2023-03-18T09:18:44.105Z,17.60
2023-03-18T09:21:30.469Z,16.60
2023-03-18T09:24:16.590Z,17.60
2023-03-18T09:27:02.640Z,19.00
2023-03-18T09:29:48.724Z,18.60
2023-03-18T09:32:35.158Z,17.20
2023-03-18T09:35:21.115Z,17.00
2023-03-18T09:38:07.423Z,18.00
2023-03-18T09:41:25.010Z,17.60
2023-03-18T09:44:34.023Z,20.10
2023-03-18T09:47:43.311Z,19.90
2023-03-18T09:50:54.522Z,20.90
2023-03-18T09:53:54.970Z,21.20
2023-03-18T09:56:42.537Z,21.60
2023-03-18T09:59:39.877Z,19.90
2023-03-18T10:02:41.010Z,19.20
2023-03-18T10:05:48.518Z,21.40
2023-03-18T10:08:52.964Z,23.50
2023-03-18T10:11:42.849Z,19.70
2023-03-18T10:15:04.357Z,18.40
2023-03-18T10:18:15.490Z,18.90
2023-03-18T10:21:10.816Z,18.50
2023-03-18T10:24:08.877Z,20.00
2023-03-18T10:27:15.406Z,19.20
2023-03-18T10:30:31.099Z,19.70
2023-03-18T10:33:31.070Z,22.50
2023-03-18T10:36:24.726Z,22.60
2023-03-18T10:39:17.564Z,22.00
2023-03-18T10:42:22.034Z,20.90
2023-03-18T10:45:25.964Z,18.70
2023-03-18T10:48:52.346Z,20.30
2023-03-18T10:51:51.206Z,20.90
2023-03-18T10:54:44.179Z,21.80
2023-03-18T10:57:30.837Z,19.80
2023-03-18T11:00:18.764Z,20.80
2023-03-18T11:03:06.116Z,23.90
2023-03-18T11:05:54.976Z,20.40
2023-03-18T11:08:41.196Z,19.00
2023-03-18T11:11:35.341Z,21.20
2023-03-18T11:14:26.946Z,23.50
2023-03-18T11:17:36.960Z,20.90
2023-03-18T11:20:37.670Z,22.70
2023-03-18T11:23:48.704Z,20.90
2023-03-18T11:26:56.259Z,22.00
2023-03-18T11:29:46.752Z,18.50
2023-03-18T11:32:35.240Z,18.60
2023-03-18T11:35:25.731Z,16.50
2023-03-18T11:38:26.349Z,16.30
2023-03-18T11:41:24.537Z,16.00
2023-03-18T11:44:31.427Z,15.80
2023-03-18T11:47:26.382Z,15.80
2023-03-18T11:50:20.432Z,15.70
2023-03-18T11:53:17.855Z,15.80
2023-03-18T11:56:15.882Z,15.60
2023-03-18T11:59:27.987Z,15.40
2023-03-18T12:02:58.876Z,15.60
2023-03-18T12:06:13.160Z,16.30
2023-03-18T12:09:38.551Z,15.80
2023-03-18T12:12:27.719Z,16.30
2023-03-18T12:15:36.502Z,15.60
2023-03-18T12:18:42.857Z,15.80
2023-03-18T12:21:38.192Z,15.70
2023-03-18T12:24:43.033Z,16.30
2023-03-18T12:27:48.627Z,16.00
2023-03-18T12:31:02.537Z,16.00
2023-03-18T12:34:02.956Z,15.90
2023-03-18T12:36:59.836Z,15.80
2023-03-18T12:40:08.282Z,16.10
2023-03-18T12:43:26.309Z,16.00
2023-03-18T12:46:46.323Z,16.10
2023-03-18T12:49:45.291Z,15.90
2023-03-18T12:52:44.133Z,15.80
2023-03-18T12:56:08.482Z,15.70
2023-03-18T12:59:08.106Z,16.10
2023-03-18T13:02:31.879Z,16.40
2023-03-18T13:05:24.869Z,16.40
2023-03-18T13:08:16.637Z,16.20
2023-03-18T13:11:27.824Z,16.30
2023-03-18T13:14:24.064Z,16.20
2023-03-18T13:17:39.038Z,16.60
2023-03-18T13:20:33.816Z,16.50
2023-03-18T13:23:38.437Z,16.30
2023-03-18T13:26:33.376Z,16.30
2023-03-18T13:29:25.226Z,16.50
2023-03-18T13:32:32.244Z,16.30
2023-03-18T13:35:38.074Z,16.60
2023-03-18T13:38:54.219Z,16.10
2023-03-18T13:41:50.490Z,16.30
2023-03-18T13:44:48.597Z,16.60
2023-03-18T13:51:28.764Z,16.30
2023-03-18T13:54:20.074Z,16.60
2023-03-18T13:57:27.001Z,16.70
2023-03-18T14:00:25.480Z,16.20
2023-03-18T14:03:31.663Z,16.50
2023-03-18T14:06:17.161Z,16.40
2023-03-18T14:09:30.781Z,16.50
2023-03-18T14:12:28.707Z,16.60
2023-03-18T14:15:38.510Z,17.10
2023-03-18T14:18:28.011Z,16.40
2023-03-18T14:26:24.429Z,16.70
2023-03-18T14:29:24.089Z,16.80
2023-03-18T14:32:34.318Z,16.80
2023-03-18T14:35:30.250Z,17.10
2023-03-18T14:38:31.947Z,17.20
2023-03-18T14:41:24.798Z,17.30
2023-03-18T14:44:28.412Z,16.80
2023-03-18T14:47:31.907Z,17.00
2023-03-18T14:50:42.071Z,16.80
2023-03-18T14:53:34.543Z,17.10
2023-03-18T14:56:29.017Z,17.10
2023-03-18T14:59:17.550Z,16.70
2023-03-18T15:02:15.352Z,16.80
2023-03-18T15:05:02.073Z,16.80
2023-03-18T15:07:53.601Z,17.10
2023-03-18T15:10:40.362Z,17.10
2023-03-18T15:13:26.656Z,17.10
2023-03-18T15:16:18.944Z,16.80
2023-03-18T15:19:05.313Z,17.20
2023-03-18T15:21:52.105Z,17.40
2023-03-18T15:24:38.101Z,17.70
2023-03-18T15:27:24.730Z,17.70
2023-03-18T15:30:31.776Z,17.70
2023-03-18T15:33:23.013Z,17.80
2023-03-18T15:36:15.688Z,17.60
2023-03-18T15:39:02.168Z,15.90
2023-03-18T15:41:54.789Z,17.60
2023-03-18T15:44:42.990Z,17.50
2023-03-18T15:47:33.449Z,17.50
2023-03-18T15:50:19.804Z,17.30
2023-03-18T15:53:25.024Z,17.40
2023-03-18T15:56:17.981Z,17.30
2023-03-18T15:59:11.452Z,17.20
2023-03-18T16:02:00.821Z,17.50
2023-03-18T16:04:48.780Z,16.90
2023-03-18T16:07:34.616Z,16.70
2023-03-18T16:10:23.411Z,17.00
2023-03-18T16:13:16.889Z,16.80
2023-03-18T16:16:04.072Z,16.60
2023-03-18T16:18:49.928Z,16.80
2023-03-18T16:21:35.929Z,16.50
2023-03-18T16:24:22.001Z,16.50
2023-03-18T16:27:22.001Z,16.20
2023-03-18T16:30:17.882Z,15.90
2023-03-18T16:33:09.107Z,16.20
2023-03-18T16:40:31.162Z,17.00
2023-03-18T16:43:19.860Z,16.60
2023-03-18T16:46:07.072Z,16.40
2023-03-18T16:48:53.360Z,16.60
2023-03-18T16:51:39.271Z,16.60
2023-03-18T16:54:28.189Z,16.40
2023-03-18T16:57:20.351Z,16.30
2023-03-18T17:00:19.594Z,16.60
2023-03-18T17:03:05.949Z,16.30
2023-03-18T17:05:52.365Z,16.50
2023-03-18T17:08:39.819Z,16.50
2023-03-18T17:11:26.066Z,16.70
2023-03-18T17:14:30.717Z,16.90
2023-03-18T17:17:28.720Z,16.40
2023-03-18T17:20:21.123Z,16.30
2023-03-18T17:23:06.699Z,16.10
2023-03-18T17:26:03.164Z,16.30
2023-03-18T17:28:50.634Z,16.30
2023-03-18T17:31:37.851Z,16.30
2023-03-18T17:34:24.472Z,15.90
2023-03-18T17:37:10.501Z,15.70
2023-03-18T17:39:56.637Z,15.70
2023-03-18T17:42:45.062Z,15.80
2023-03-18T17:45:33.920Z,16.00
2023-03-18T17:48:22.948Z,16.10
2023-03-18T17:51:18.904Z,16.00
2023-03-18T17:54:08.451Z,15.90
2023-03-18T17:56:54.524Z,15.90
2023-03-18T17:59:41.314Z,16.00
2023-03-18T18:02:27.782Z,16.00
2023-03-18T18:05:16.200Z,15.50
2023-03-18T18:08:02.189Z,15.30
2023-03-18T18:10:49.668Z,15.10
2023-03-18T18:13:35.692Z,15.10
2023-03-18T18:16:21.892Z,15.40
2023-03-18T18:19:10.756Z,15.30
2023-03-18T18:21:56.965Z,15.40
2023-03-18T18:24:44.621Z,15.40
2023-03-18T18:27:30.461Z,14.80
2023-03-18T18:30:19.079Z,15.00
2023-03-18T18:33:05.249Z,15.00
2023-03-18T18:35:51.388Z,14.90
2023-03-18T18:38:38.212Z,15.20
2023-03-18T18:41:24.748Z,15.40
2023-03-18T18:44:12.055Z,15.40
2023-03-18T18:46:58.357Z,15.00
2023-03-18T18:49:45.231Z,14.90
2023-03-18T18:52:32.554Z,14.80
2023-03-18T18:55:18.787Z,14.70
2023-03-18T18:58:04.588Z,14.80
2023-03-18T19:00:51.519Z,15.00
2023-03-18T19:03:37.601Z,14.80
2023-03-18T19:06:31.871Z,14.80
2023-03-18T19:09:24.573Z,14.60
2023-03-18T19:12:16.200Z,14.60
2023-03-18T19:15:02.613Z,14.40
2023-03-18T19:17:49.022Z,14.40
2023-03-18T19:20:35.220Z,14.50
2023-03-18T19:23:30.239Z,14.30
2023-03-18T19:26:16.874Z,14.30
2023-03-18T19:29:03.420Z,14.00
2023-03-18T19:31:50.446Z,13.90
2023-03-18T19:34:37.559Z,13.90
2023-03-18T19:37:31.296Z,13.80
2023-03-18T19:40:30.304Z,13.80
2023-03-18T19:43:21.986Z,14.00
2023-03-18T19:46:39.260Z,13.90
2023-03-18T19:49:36.517Z,13.90
2023-03-18T19:52:26.265Z,14.00
2023-03-18T19:55:16.768Z,14.00
2023-03-18T19:58:03.028Z,13.90
2023-03-18T20:00:49.285Z,13.80
2023-03-18T20:03:35.873Z,13.70
2023-03-18T20:06:21.873Z,13.70
2023-03-18T20:09:07.986Z,13.70
2023-03-18T20:11:59.719Z,13.80
2023-03-18T20:14:45.608Z,13.70
2023-03-18T20:17:34.990Z,13.60
2023-03-18T20:20:24.707Z,13.50
2023-03-18T20:23:21.235Z,13.50
2023-03-18T20:26:07.796Z,13.40
2023-03-18T20:28:55.805Z,13.10
2023-03-18T20:31:42.310Z,13.00
2023-03-18T20:34:28.322Z,12.80
2023-03-18T20:37:34.826Z,12.80
2023-03-18T20:40:29.461Z,12.80
2023-03-18T20:43:20.485Z,12.80
2023-03-18T20:46:06.709Z,12.70
2023-03-18T20:48:53.385Z,12.70
2023-03-18T20:51:41.223Z,12.90
2023-03-18T20:54:31.628Z,12.90
2023-03-18T20:57:19.109Z,13.00
2023-03-18T21:00:07.154Z,13.10
2023-03-18T21:02:58.177Z,13.00
2023-03-18T21:05:44.044Z,13.00
2023-03-18T21:08:31.797Z,12.90
2023-03-18T21:11:22.181Z,12.90
2023-03-18T21:14:13.606Z,12.90
2023-03-18T21:16:59.672Z,12.90
2023-03-18T21:19:45.895Z,13.00
2023-03-18T21:22:33.413Z,12.90
2023-03-18T21:25:21.998Z,12.90
2023-03-18T21:28:14.869Z,12.80
2023-03-18T21:31:03.078Z,12.70
2023-03-18T21:33:49.447Z,12.70
2023-03-18T21:36:36.522Z,12.70
2023-03-18T21:39:22.857Z,12.80
2023-03-18T21:42:28.568Z,12.80
2023-03-18T21:45:17.946Z,12.80
2023-03-18T21:48:03.619Z,12.80
2023-03-18T21:50:50.056Z,12.70
2023-03-18T21:53:36.070Z,12.60
2023-03-18T21:56:22.088Z,12.60
2023-03-18T21:59:07.934Z,12.60
2023-03-18T22:01:54.326Z,12.40
2023-03-18T22:04:40.523Z,12.30
2023-03-18T22:07:28.219Z,12.30
2023-03-18T22:10:20.513Z,12.10
2023-03-18T22:13:24.162Z,12.00
2023-03-18T22:16:15.764Z,12.10
2023-03-18T22:19:02.144Z,12.20
2023-03-18T22:21:48.791Z,12.30
2023-03-18T22:24:34.651Z,12.20
2023-03-18T22:27:26.133Z,12.10
2023-03-18T22:30:13.284Z,12.10
2023-03-18T22:33:01.310Z,12.00
2023-03-18T22:35:47.882Z,12.00
2023-03-18T22:38:33.709Z,11.90
2023-03-18T22:41:29.400Z,11.90
2023-03-18T22:44:22.859Z,12.00
2023-03-18T22:47:16.400Z,11.90
2023-03-18T22:50:02.697Z,11.60
2023-03-18T22:53:06.593Z,11.70
2023-03-18T22:55:54.993Z,11.80
2023-03-18T22:58:41.266Z,11.70
2023-03-18T23:01:31.221Z,11.90
2023-03-18T23:04:19.579Z,12.20
2023-03-18T23:07:06.390Z,12.30
2023-03-18T23:09:57.329Z,12.20
2023-03-18T23:12:43.572Z,11.50
2023-03-18T23:15:30.050Z,11.20
2023-03-18T23:18:17.606Z,11.50
2023-03-18T23:21:03.893Z,11.80
2023-03-18T23:23:51.072Z,11.90
2023-03-18T23:26:36.979Z,11.80
2023-03-18T23:29:23.217Z,12.10
2023-03-18T23:32:10.519Z,12.20
2023-03-18T23:34:56.878Z,12.20
2023-03-18T23:37:42.596Z,11.90
2023-03-18T23:40:28.429Z,12.10
2023-03-18T23:43:14.703Z,12.10
2023-03-18T23:46:01.994Z,12.10
2023-03-18T23:48:48.220Z,11.70
2023-03-18T23:51:34.026Z,11.60
2023-03-18T23:54:19.945Z,11.80
2023-03-18T23:57:07.406Z,12.20
2023-03-18T23:59:53.423Z,12.10
